sensor_id;sensor_type;location;lat;lon;timestamp;pressure;altitude;pressure_sealevel;temperature;humidity
60832;BME280;46665;51.558;-0.448;2023-04-26T00:02:02;101446.72;;;4.81;100.00
60832;BME280;46665;51.558;-0.448;2023-04-26T00:04:29;101441.75;;;4.78;100.00
60832;BME280;46665;51.558;-0.448;2023-04-26T00:06:55;101443.25;;;4.74;100.00
60832;BME280;46665;51.558;-0.448;2023-04-26T00:09:21;101443.09;;;4.69;100.00
60832;BME280;46665;51.558;-0.448;2023-04-26T00:11:46;101427.94;;;4.68;100.00
60832;BME280;46665;51.558;-0.448;2023-04-26T00:14:12;101419.50;;;4.64;100.00
60832;BME280;46665;51.558;-0.448;2023-04-26T00:16:38;101427.94;;;4.68;100.00
60832;BME280;46665;51.558;-0.448;2023-04-26T00:19:03;101406.63;;;4.66;100.00
60832;BME280;46665;51.558;-0.448;2023-04-26T00:21:29;101413.81;;;4.72;100.00
60832;BME280;46665;51.558;-0.448;2023-04-26T00:23:54;101396.66;;;4.67;100.00
60832;BME280;46665;51.558;-0.448;2023-04-26T00:26:20;101402.25;;;4.65;100.00
60832;BME280;46665;51.558;-0.448;2023-04-26T00:28:45;101397.53;;;4.61;100.00
60832;BME280;46665;51.558;-0.448;2023-04-26T00:31:17;101404.03;;;4.53;100.00
60832;BME280;46665;51.558;-0.448;2023-04-26T00:33:42;101414.44;;;4.49;100.00
60832;BME280;46665;51.558;-0.448;2023-04-26T00:36:09;101401.72;;;4.38;100.00
60832;BME280;46665;51.558;-0.448;2023-04-26T00:38:35;101411.28;;;4.34;100.00
60832;BME280;46665;51.558;-0.448;2023-04-26T00:41:01;101410.66;;;4.32;100.00
60832;BME280;46665;51.558;-0.448;2023-04-26T00:43:26;101410.66;;;4.32;100.00
60832;BME280;46665;51.558;-0.448;2023-04-26T00:45:52;101404.81;;;4.35;100.00
60832;BME280;46665;51.558;-0.448;2023-04-26T00:48:17;101401.56;;;4.33;100.00
60832;BME280;46665;51.558;-0.448;2023-04-26T00:50:43;101408.13;;;4.37;100.00
60832;BME280;46665;51.558;-0.448;2023-04-26T00:53:09;101406.50;;;4.36;100.00
60832;BME280;46665;51.558;-0.448;2023-04-26T00:55:41;101403.22;;;4.27;100.00
60832;BME280;46665;51.558;-0.448;2023-04-26T00:58:07;101412.75;;;4.30;100.00
60832;BME280;46665;51.558;-0.448;2023-04-26T01:00:33;101397.47;;;4.24;100.00
60832;BME280;46665;51.558;-0.448;2023-04-26T01:02:58;101406.00;;;4.21;100.00
60832;BME280;46665;51.558;-0.448;2023-04-26T01:05:24;101403.72;;;4.18;100.00
60832;BME280;46665;51.558;-0.448;2023-04-26T01:07:49;101413.31;;;4.13;100.00
60832;BME280;46665;51.558;-0.448;2023-04-26T01:10:16;101389.72;;;4.09;100.00
60832;BME280;46665;51.558;-0.448;2023-04-26T01:12:42;101394.06;;;4.10;100.00
60832;BME280;46665;51.558;-0.448;2023-04-26T01:15:09;101390.50;;;4.16;100.00
60832;BME280;46665;51.558;-0.448;2023-04-26T01:17:34;101384.00;;;4.24;100.00
60832;BME280;46665;51.558;-0.448;2023-04-26T01:20:02;101377.81;;;4.23;100.00
60832;BME280;46665;51.558;-0.448;2023-04-26T01:22:31;101378.78;;;4.29;100.00
60832;BME280;46665;51.558;-0.448;2023-04-26T01:24:58;101369.44;;;4.31;100.00
60832;BME280;46665;51.558;-0.448;2023-04-26T01:27:25;101378.72;;;4.36;100.00
60832;BME280;46665;51.558;-0.448;2023-04-26T01:29:51;101379.31;;;4.38;100.00
60832;BME280;46665;51.558;-0.448;2023-04-26T01:32:17;101381.34;;;4.42;100.00
60832;BME280;46665;51.558;-0.448;2023-04-26T01:34:42;101374.06;;;4.43;100.00
60832;BME280;46665;51.558;-0.448;2023-04-26T01:37:08;101376.94;;;4.48;100.00
60832;BME280;46665;51.558;-0.448;2023-04-26T01:39:34;101377.78;;;4.48;100.00
60832;BME280;46665;51.558;-0.448;2023-04-26T01:42:00;101371.47;;;4.54;100.00
60832;BME280;46665;51.558;-0.448;2023-04-26T01:44:27;101364.22;;;4.55;100.00
60832;BME280;46665;51.558;-0.448;2023-04-26T01:46:52;101362.78;;;4.52;100.00
60832;BME280;46665;51.558;-0.448;2023-04-26T01:49:17;101367.31;;;4.59;100.00
60832;BME280;46665;51.558;-0.448;2023-04-26T01:51:43;101364.38;;;4.60;100.00
60832;BME280;46665;51.558;-0.448;2023-04-26T01:54:08;101366.44;;;4.58;100.00
60832;BME280;46665;51.558;-0.448;2023-04-26T01:56:33;101376.06;;;4.54;100.00
60832;BME280;46665;51.558;-0.448;2023-04-26T01:58:59;101366.16;;;4.48;100.00
60832;BME280;46665;51.558;-0.448;2023-04-26T02:01:24;101370.25;;;4.50;100.00
60832;BME280;46665;51.558;-0.448;2023-04-26T02:03:51;101369.84;;;4.53;100.00
60832;BME280;46665;51.558;-0.448;2023-04-26T02:06:16;101360.91;;;4.53;100.00
60832;BME280;46665;51.558;-0.448;2023-04-26T02:08:41;101372.69;;;4.59;100.00
60832;BME280;46665;51.558;-0.448;2023-04-26T02:11:07;101363.53;;;4.60;100.00
60832;BME280;46665;51.558;-0.448;2023-04-26T02:13:32;101361.00;;;4.65;100.00
60832;BME280;46665;51.558;-0.448;2023-04-26T02:15:57;101354.94;;;4.69;100.00
60832;BME280;46665;51.558;-0.448;2023-04-26T02:18:23;101373.00;;;4.69;100.00
60832;BME280;46665;51.558;-0.448;2023-04-26T02:20:49;101371.13;;;4.69;100.00
60832;BME280;46665;51.558;-0.448;2023-04-26T02:23:14;101366.69;;;4.75;100.00
60832;BME280;46665;51.558;-0.448;2023-04-26T02:25:40;101364.00;;;4.75;100.00
60832;BME280;46665;51.558;-0.448;2023-04-26T02:28:06;101391.94;;;4.81;100.00
60832;BME280;46665;51.558;-0.448;2023-04-26T02:30:32;101373.97;;;4.74;100.00
60832;BME280;46665;51.558;-0.448;2023-04-26T02:32:58;101383.53;;;4.70;100.00
60832;BME280;46665;51.558;-0.448;2023-04-26T02:35:23;101375.91;;;4.67;100.00
60832;BME280;46665;51.558;-0.448;2023-04-26T02:37:49;101372.59;;;4.65;100.00
60832;BME280;46665;51.558;-0.448;2023-04-26T02:40:17;101364.97;;;4.62;100.00
60832;BME280;46665;51.558;-0.448;2023-04-26T02:42:43;101369.09;;;4.65;100.00
60832;BME280;46665;51.558;-0.448;2023-04-26T02:45:08;101355.97;;;4.68;100.00
60832;BME280;46665;51.558;-0.448;2023-04-26T02:47:34;101353.53;;;4.67;100.00
60832;BME280;46665;51.558;-0.448;2023-04-26T02:50:07;101359.59;;;4.62;100.00
60832;BME280;46665;51.558;-0.448;2023-04-26T02:52:34;101350.69;;;4.62;100.00
60832;BME280;46665;51.558;-0.448;2023-04-26T02:55:00;101350.06;;;4.60;100.00
60832;BME280;46665;51.558;-0.448;2023-04-26T02:57:26;101346.91;;;4.63;100.00
60832;BME280;46665;51.558;-0.448;2023-04-26T02:59:52;101345.94;;;4.57;100.00
60832;BME280;46665;51.558;-0.448;2023-04-26T03:02:17;101349.69;;;4.56;100.00
60832;BME280;46665;51.558;-0.448;2023-04-26T03:04:44;101357.56;;;4.57;100.00
60832;BME280;46665;51.558;-0.448;2023-04-26T03:07:10;101353.81;;;4.59;100.00
60832;BME280;46665;51.558;-0.448;2023-04-26T03:09:36;101345.94;;;4.57;100.00
60832;BME280;46665;51.558;-0.448;2023-04-26T03:12:06;101360.63;;;4.61;100.00
60832;BME280;46665;51.558;-0.448;2023-04-26T03:14:32;101351.84;;;4.66;100.00
60832;BME280;46665;51.558;-0.448;2023-04-26T03:16:59;101343.91;;;4.71;100.00
60832;BME280;46665;51.558;-0.448;2023-04-26T03:19:24;101343.69;;;4.72;100.00
60832;BME280;46665;51.558;-0.448;2023-04-26T03:21:50;101350.97;;;4.72;100.00
60832;BME280;46665;51.558;-0.448;2023-04-26T03:24:15;101348.88;;;4.74;100.00
60832;BME280;46665;51.558;-0.448;2023-04-26T03:26:41;101349.09;;;4.72;100.00
60832;BME280;46665;51.558;-0.448;2023-04-26T03:29:06;101353.22;;;4.75;100.00
60832;BME280;46665;51.558;-0.448;2023-04-26T03:31:32;101345.34;;;4.73;100.00
60832;BME280;46665;51.558;-0.448;2023-04-26T03:33:57;101345.44;;;4.67;100.00
60832;BME280;46665;51.558;-0.448;2023-04-26T03:36:23;101357.63;;;4.69;100.00
60832;BME280;46665;51.558;-0.448;2023-04-26T03:38:48;101357.41;;;4.71;100.00
60832;BME280;46665;51.558;-0.448;2023-04-26T03:41:14;101356.13;;;4.73;100.00
60832;BME280;46665;51.558;-0.448;2023-04-26T03:43:39;101336.88;;;4.70;100.00
60832;BME280;46665;51.558;-0.448;2023-04-26T03:46:04;101355.31;;;4.73;100.00
60832;BME280;46665;51.558;-0.448;2023-04-26T03:48:30;101348.03;;;4.73;100.00
60832;BME280;46665;51.558;-0.448;2023-04-26T03:50:55;101335.97;;;4.76;100.00
60832;BME280;46665;51.558;-0.448;2023-04-26T03:53:21;101344.75;;;4.71;100.00
60832;BME280;46665;51.558;-0.448;2023-04-26T03:55:46;101342.22;;;4.76;100.00
60832;BME280;46665;51.558;-0.448;2023-04-26T03:58:12;101329.91;;;4.81;100.00
60832;BME280;46665;51.558;-0.448;2023-04-26T04:00:38;101330.31;;;4.84;100.00
60832;BME280;46665;51.558;-0.448;2023-04-26T04:03:05;101335.38;;;4.92;100.00
60832;BME280;46665;51.558;-0.448;2023-04-26T04:05:31;101329.31;;;4.97;100.00
60832;BME280;46665;51.558;-0.448;2023-04-26T04:07:57;101326.63;;;4.97;100.00
60832;BME280;46665;51.558;-0.448;2023-04-26T04:10:22;101321.81;;;4.99;100.00
60832;BME280;46665;51.558;-0.448;2023-04-26T04:12:48;101323.81;;;5.04;100.00
60832;BME280;46665;51.558;-0.448;2023-04-26T04:15:15;101327.09;;;5.06;100.00
60832;BME280;46665;51.558;-0.448;2023-04-26T04:17:40;101315.28;;;5.07;100.00
60832;BME280;46665;51.558;-0.448;2023-04-26T04:20:06;101310.09;;;5.05;100.00
60832;BME280;46665;51.558;-0.448;2023-04-26T04:22:32;101308.47;;;5.04;100.00
60832;BME280;46665;51.558;-0.448;2023-04-26T04:24:58;101299.53;;;5.04;100.00
60832;BME280;46665;51.558;-0.448;2023-04-26T04:27:24;101308.00;;;5.07;100.00
60832;BME280;46665;51.558;-0.448;2023-04-26T04:29:50;101304.03;;;5.10;100.00
60832;BME280;46665;51.558;-0.448;2023-04-26T04:32:15;101307.09;;;5.13;100.00
60832;BME280;46665;51.558;-0.448;2023-04-26T04:34:41;101301.34;;;5.10;100.00
60832;BME280;46665;51.558;-0.448;2023-04-26T04:37:08;101305.91;;;5.09;100.00
60832;BME280;46665;51.558;-0.448;2023-04-26T04:39:33;101309.78;;;5.13;100.00
60832;BME280;46665;51.558;-0.448;2023-04-26T04:41:59;101305.66;;;5.11;100.00
60832;BME280;46665;51.558;-0.448;2023-04-26T04:44:24;101305.34;;;5.19;100.00
60832;BME280;46665;51.558;-0.448;2023-04-26T04:46:51;101316.53;;;5.22;100.00
60832;BME280;46665;51.558;-0.448;2023-04-26T04:49:17;101316.88;;;5.26;100.00
60832;BME280;46665;51.558;-0.448;2023-04-26T04:51:43;101310.19;;;5.29;100.00
60832;BME280;46665;51.558;-0.448;2023-04-26T04:54:12;101312.88;;;5.29;100.00
60832;BME280;46665;51.558;-0.448;2023-04-26T04:56:38;101311.47;;;5.26;100.00
60832;BME280;46665;51.558;-0.448;2023-04-26T04:59:04;101309.09;;;5.18;100.00
60832;BME280;46665;51.558;-0.448;2023-04-26T05:01:33;101303.56;;;5.13;100.00
60832;BME280;46665;51.558;-0.448;2023-04-26T05:03:59;101306.88;;;5.15;100.00
60832;BME280;46665;51.558;-0.448;2023-04-26T05:06:28;101313.91;;;5.16;100.00
60832;BME280;46665;51.558;-0.448;2023-04-26T05:08:55;101308.75;;;5.14;100.00
60832;BME280;46665;51.558;-0.448;2023-04-26T05:11:20;101316.00;;;5.14;100.00
60832;BME280;46665;51.558;-0.448;2023-04-26T05:13:47;101309.31;;;5.16;100.00
60832;BME280;46665;51.558;-0.448;2023-04-26T05:16:12;101305.22;;;5.14;100.00
60832;BME280;46665;51.558;-0.448;2023-04-26T05:18:38;101302.50;;;5.14;100.00
60832;BME280;46665;51.558;-0.448;2023-04-26T05:21:03;101302.28;;;5.15;100.00
60832;BME280;46665;51.558;-0.448;2023-04-26T05:23:29;101303.56;;;5.13;100.00
60832;BME280;46665;51.558;-0.448;2023-04-26T05:25:55;101306.06;;;5.14;100.00
60832;BME280;46665;51.558;-0.448;2023-04-26T05:28:20;101317.28;;;5.11;100.00
60832;BME280;46665;51.558;-0.448;2023-04-26T05:30:46;101316.84;;;5.14;100.00
60832;BME280;46665;51.558;-0.448;2023-04-26T05:33:12;101310.53;;;5.20;100.00
60832;BME280;46665;51.558;-0.448;2023-04-26T05:35:38;101320.63;;;5.25;100.00
60832;BME280;46665;51.558;-0.448;2023-04-26T05:38:03;101307.50;;;5.29;100.00
60832;BME280;46665;51.558;-0.448;2023-04-26T05:40:28;101325.25;;;5.36;100.00
60832;BME280;46665;51.558;-0.448;2023-04-26T05:42:54;101314.56;;;5.41;100.00
60832;BME280;46665;51.558;-0.448;2023-04-26T05:45:19;101320.09;;;5.47;100.00
60832;BME280;46665;51.558;-0.448;2023-04-26T05:47:45;101316.59;;;5.46;100.00
60832;BME280;46665;51.558;-0.448;2023-04-26T05:50:11;101306.28;;;5.55;100.00
60832;BME280;46665;51.558;-0.448;2023-04-26T05:52:37;101302.44;;;5.62;100.00
60832;BME280;46665;51.558;-0.448;2023-04-26T05:55:03;101297.38;;;5.66;100.00
60832;BME280;46665;51.558;-0.448;2023-04-26T05:57:30;101311.00;;;5.71;100.00
60832;BME280;46665;51.558;-0.448;2023-04-26T05:59:55;101310.91;;;5.78;100.00
60832;BME280;46665;51.558;-0.448;2023-04-26T06:02:20;101312.56;;;5.79;100.00
60832;BME280;46665;51.558;-0.448;2023-04-26T06:04:46;101318.66;;;5.86;100.00
60832;BME280;46665;51.558;-0.448;2023-04-26T06:07:11;101327.13;;;5.90;100.00
60832;BME280;46665;51.558;-0.448;2023-04-26T06:09:37;101331.69;;;5.89;100.00
60832;BME280;46665;51.558;-0.448;2023-04-26T06:12:02;101327.06;;;5.96;100.00
60832;BME280;46665;51.558;-0.448;2023-04-26T06:14:28;101331.28;;;6.04;100.00
60832;BME280;46665;51.558;-0.448;2023-04-26T06:16:54;101330.47;;;6.03;100.00
60832;BME280;46665;51.558;-0.448;2023-04-26T06:19:20;101337.28;;;6.06;100.00
60832;BME280;46665;51.558;-0.448;2023-04-26T06:21:45;101330.00;;;6.06;100.00
60832;BME280;46665;51.558;-0.448;2023-04-26T06:24:11;101327.88;;;6.08;100.00
60832;BME280;46665;51.558;-0.448;2023-04-26T06:26:36;101328.00;;;6.14;100.00
60832;BME280;46665;51.558;-0.448;2023-04-26T06:29:01;101333.75;;;6.17;100.00
60832;BME280;46665;51.558;-0.448;2023-04-26T06:31:27;101331.16;;;6.22;100.00
60832;BME280;46665;51.558;-0.448;2023-04-26T06:33:53;101343.38;;;6.25;100.00
60832;BME280;46665;51.558;-0.448;2023-04-26T06:36:18;101333.28;;;6.32;100.00
60832;BME280;46665;51.558;-0.448;2023-04-26T06:38:43;101327.66;;;6.34;99.43
60832;BME280;46665;51.558;-0.448;2023-04-26T06:41:09;101324.81;;;6.40;99.12
60832;BME280;46665;51.558;-0.448;2023-04-26T06:43:34;101324.47;;;6.48;99.24
60832;BME280;46665;51.558;-0.448;2023-04-26T06:46:00;101319.50;;;6.45;96.45
60832;BME280;46665;51.558;-0.448;2023-04-26T06:48:25;101326.22;;;6.55;97.83
60832;BME280;46665;51.558;-0.448;2023-04-26T06:50:51;101333.13;;;6.62;96.38
60832;BME280;46665;51.558;-0.448;2023-04-26T06:53:16;101327.72;;;6.62;93.67
60832;BME280;46665;51.558;-0.448;2023-04-26T06:55:42;101340.75;;;6.65;93.75
60832;BME280;46665;51.558;-0.448;2023-04-26T06:58:07;101335.72;;;6.69;92.91
60832;BME280;46665;51.558;-0.448;2023-04-26T07:00:33;101330.53;;;6.79;93.81
60832;BME280;46665;51.558;-0.448;2023-04-26T07:02:58;101332.25;;;6.85;92.78
60832;BME280;46665;51.558;-0.448;2023-04-26T07:05:24;101325.22;;;6.84;91.96
60832;BME280;46665;51.558;-0.448;2023-04-26T07:07:49;101317.19;;;6.89;91.59
60832;BME280;46665;51.558;-0.448;2023-04-26T07:10:14;101327.22;;;6.89;89.04
60832;BME280;46665;51.558;-0.448;2023-04-26T07:12:40;101323.31;;;6.85;88.18
60832;BME280;46665;51.558;-0.448;2023-04-26T07:15:06;101330.38;;;6.86;86.96
60832;BME280;46665;51.558;-0.448;2023-04-26T07:17:32;101314.88;;;6.81;85.92
60832;BME280;46665;51.558;-0.448;2023-04-26T07:19:57;101323.75;;;6.93;86.02
60832;BME280;46665;51.558;-0.448;2023-04-26T07:22:23;101317.88;;;6.97;86.12
60832;BME280;46665;51.558;-0.448;2023-04-26T07:24:48;101324.22;;;7.02;85.11
60832;BME280;46665;51.558;-0.448;2023-04-26T07:27:14;101329.03;;;7.00;83.54
60832;BME280;46665;51.558;-0.448;2023-04-26T07:29:39;101319.75;;;6.96;81.90
60832;BME280;46665;51.558;-0.448;2023-04-26T07:32:05;101313.63;;;7.01;82.13
60832;BME280;46665;51.558;-0.448;2023-04-26T07:34:31;101318.41;;;7.10;81.95
60832;BME280;46665;51.558;-0.448;2023-04-26T07:36:56;101321.44;;;7.14;82.02
60832;BME280;46665;51.558;-0.448;2023-04-26T07:39:22;101326.84;;;7.14;80.46
60832;BME280;46665;51.558;-0.448;2023-04-26T07:41:47;101320.53;;;7.08;77.41
60832;BME280;46665;51.558;-0.448;2023-04-26T07:44:13;101331.94;;;7.10;79.09
60832;BME280;46665;51.558;-0.448;2023-04-26T07:46:38;101319.41;;;7.04;77.91
60832;BME280;46665;51.558;-0.448;2023-04-26T07:49:04;101330.22;;;7.04;75.96
60832;BME280;46665;51.558;-0.448;2023-04-26T07:51:29;101334.66;;;7.10;78.22
60832;BME280;46665;51.558;-0.448;2023-04-26T07:53:55;101321.25;;;7.04;75.39
60832;BME280;46665;51.558;-0.448;2023-04-26T07:56:21;101326.44;;;7.05;76.72
60832;BME280;46665;51.558;-0.448;2023-04-26T07:58:48;101327.97;;;7.01;77.17
60832;BME280;46665;51.558;-0.448;2023-04-26T08:01:14;101337.25;;;7.05;76.96
60832;BME280;46665;51.558;-0.448;2023-04-26T08:03:40;101338.66;;;7.08;76.94
60832;BME280;46665;51.558;-0.448;2023-04-26T08:06:06;101341.38;;;7.08;77.13
60832;BME280;46665;51.558;-0.448;2023-04-26T08:08:33;101341.38;;;7.08;74.74
60832;BME280;46665;51.558;-0.448;2023-04-26T08:10:59;101331.84;;;7.05;73.65
60832;BME280;46665;51.558;-0.448;2023-04-26T08:13:24;101336.44;;;7.05;73.75
60832;BME280;46665;51.558;-0.448;2023-04-26T08:15:50;101335.63;;;7.04;73.63
60832;BME280;46665;51.558;-0.448;2023-04-26T08:18:15;101330.69;;;7.01;73.36
60832;BME280;46665;51.558;-0.448;2023-04-26T08:20:41;101342.66;;;7.05;74.15
60832;BME280;46665;51.558;-0.448;2023-04-26T08:23:06;101340.56;;;7.07;73.66
60832;BME280;46665;51.558;-0.448;2023-04-26T08:25:32;101332.94;;;7.04;73.74
60832;BME280;46665;51.558;-0.448;2023-04-26T08:27:59;101333.75;;;7.05;74.28
60832;BME280;46665;51.558;-0.448;2023-04-26T08:30:25;101333.47;;;7.06;73.09
60832;BME280;46665;51.558;-0.448;2023-04-26T08:32:50;101339.16;;;7.05;72.15
60832;BME280;46665;51.558;-0.448;2023-04-26T08:35:16;101344.66;;;7.10;71.63
60832;BME280;46665;51.558;-0.448;2023-04-26T08:37:41;101335.97;;;7.08;70.88
60832;BME280;46665;51.558;-0.448;2023-04-26T08:40:07;101339.13;;;7.16;71.46
60832;BME280;46665;51.558;-0.448;2023-04-26T08:42:42;101329.09;;;7.17;69.65
60832;BME280;46665;51.558;-0.448;2023-04-26T08:45:09;101340.25;;;7.21;71.54
60832;BME280;46665;51.558;-0.448;2023-04-26T08:47:42;101334.13;;;7.25;70.47
60832;BME280;46665;51.558;-0.448;2023-04-26T08:50:14;101328.00;;;7.30;71.25
60832;BME280;46665;51.558;-0.448;2023-04-26T08:52:41;101341.63;;;7.35;69.66
60832;BME280;46665;51.558;-0.448;2023-04-26T08:55:08;101332.19;;;7.37;69.12
60832;BME280;46665;51.558;-0.448;2023-04-26T08:57:35;101332.53;;;7.41;70.33
60832;BME280;46665;51.558;-0.448;2023-04-26T09:00:04;101333.50;;;7.52;70.85
60832;BME280;46665;51.558;-0.448;2023-04-26T09:02:35;101346.59;;;7.55;69.59
60832;BME280;46665;51.558;-0.448;2023-04-26T09:05:01;101332.06;;;7.61;69.47
60832;BME280;46665;51.558;-0.448;2023-04-26T09:07:31;101346.41;;;7.62;69.22
60832;BME280;46665;51.558;-0.448;2023-04-26T09:09:58;101335.22;;;7.70;69.51
60832;BME280;46665;51.558;-0.448;2023-04-26T09:12:24;101331.19;;;7.72;67.98
60832;BME280;46665;51.558;-0.448;2023-04-26T09:14:50;101332.81;;;7.73;68.21
60832;BME280;46665;51.558;-0.448;2023-04-26T09:19:51;101330.84;;;7.69;66.58
60832;BME280;46665;51.558;-0.448;2023-04-26T09:22:35;101341.03;;;7.78;65.83
60832;BME280;46665;51.558;-0.448;2023-04-26T09:25:03;101334.88;;;7.83;66.77
60832;BME280;46665;51.558;-0.448;2023-04-26T09:27:34;101342.50;;;7.86;66.88
60832;BME280;46665;51.558;-0.448;2023-04-26T09:30:10;101345.06;;;7.93;67.79
60832;BME280;46665;51.558;-0.448;2023-04-26T09:33:01;101341.38;;;7.99;67.05
60832;BME280;46665;51.558;-0.448;2023-04-26T09:35:35;101340.03;;;8.01;66.07
60832;BME280;46665;51.558;-0.448;2023-04-26T09:38:09;101345.91;;;8.10;67.85
60832;BME280;46665;51.558;-0.448;2023-04-26T09:40:49;101336.75;;;8.16;65.50
60832;BME280;46665;51.558;-0.448;2023-04-26T09:43:19;101336.59;;;8.23;65.36
60832;BME280;46665;51.558;-0.448;2023-04-26T09:50:48;101348.16;;;8.35;63.95
60832;BME280;46665;51.558;-0.448;2023-04-26T09:53:33;101338.47;;;8.39;64.52
60832;BME280;46665;51.558;-0.448;2023-04-26T09:58:38;101335.47;;;8.58;63.31
60832;BME280;46665;51.558;-0.448;2023-04-26T10:01:04;101345.91;;;8.66;64.63
60832;BME280;46665;51.558;-0.448;2023-04-26T10:03:35;101345.41;;;8.69;62.84
60832;BME280;46665;51.558;-0.448;2023-04-26T10:06:01;101339.47;;;8.72;61.84
60832;BME280;46665;51.558;-0.448;2023-04-26T10:08:27;101338.72;;;8.77;63.17
60832;BME280;46665;51.558;-0.448;2023-04-26T10:10:54;101335.31;;;8.86;62.39
60832;BME280;46665;51.558;-0.448;2023-04-26T10:13:20;101337.75;;;8.88;61.91
60832;BME280;46665;51.558;-0.448;2023-04-26T10:15:46;101336.44;;;8.90;61.51
60832;BME280;46665;51.558;-0.448;2023-04-26T10:18:12;101338.91;;;8.92;61.65
60832;BME280;46665;51.558;-0.448;2023-04-26T10:20:40;101334.06;;;8.94;62.56
60832;BME280;46665;51.558;-0.448;2023-04-26T10:23:15;101336.31;;;9.02;61.93
60832;BME280;46665;51.558;-0.448;2023-04-26T10:25:44;101327.84;;;8.99;62.32
60832;BME280;46665;51.558;-0.448;2023-04-26T10:28:09;101332.72;;;8.97;62.41
60832;BME280;46665;51.558;-0.448;2023-04-26T10:30:53;101326.72;;;8.95;60.69
60832;BME280;46665;51.558;-0.448;2023-04-26T10:33:19;101328.34;;;8.96;62.27
60832;BME280;46665;51.558;-0.448;2023-04-26T10:36:05;101329.81;;;9.03;61.81
60832;BME280;46665;51.558;-0.448;2023-04-26T10:38:32;101325.47;;;9.02;60.88
60832;BME280;46665;51.558;-0.448;2023-04-26T10:41:33;101329.03;;;9.08;61.83
60832;BME280;46665;51.558;-0.448;2023-04-26T10:47:19;101307.78;;;9.00;61.12
60832;BME280;46665;51.558;-0.448;2023-04-26T10:49:46;101312.69;;;9.03;61.82
60832;BME280;46665;51.558;-0.448;2023-04-26T10:52:14;101313.03;;;9.06;62.76
60832;BME280;46665;51.558;-0.448;2023-04-26T10:57:15;101309.75;;;9.04;62.36
60832;BME280;46665;51.558;-0.448;2023-04-26T11:06:01;101305.34;;;9.25;59.87
60832;BME280;46665;51.558;-0.448;2023-04-26T11:10:38;101300.53;;;9.32;60.18
60832;BME280;46665;51.558;-0.448;2023-04-26T11:13:03;101293.81;;;9.40;60.74
60832;BME280;46665;51.558;-0.448;2023-04-26T11:15:32;101305.34;;;9.52;61.26
60832;BME280;46665;51.558;-0.448;2023-04-26T11:18:01;101301.84;;;9.57;62.29
60832;BME280;46665;51.558;-0.448;2023-04-26T11:20:28;101290.66;;;9.53;60.01
60832;BME280;46665;51.558;-0.448;2023-04-26T11:22:54;101298.56;;;9.55;59.94
60832;BME280;46665;51.558;-0.448;2023-04-26T11:25:20;101297.47;;;9.56;60.29
60832;BME280;46665;51.558;-0.448;2023-04-26T11:27:45;101289.38;;;9.61;61.44
60832;BME280;46665;51.558;-0.448;2023-04-26T11:30:11;101286.16;;;9.69;61.51
60832;BME280;46665;51.558;-0.448;2023-04-26T11:32:36;101291.69;;;9.80;61.43
60832;BME280;46665;51.558;-0.448;2023-04-26T11:35:02;101287.13;;;9.85;59.52
60832;BME280;46665;51.558;-0.448;2023-04-26T11:37:28;101288.31;;;9.99;60.54
60832;BME280;46665;51.558;-0.448;2023-04-26T11:39:56;101291.91;;;10.05;59.82
60832;BME280;46665;51.558;-0.448;2023-04-26T11:42:24;101285.38;;;10.06;59.62
60832;BME280;46665;51.558;-0.448;2023-04-26T11:44:50;101277.22;;;10.06;59.01
60832;BME280;46665;51.558;-0.448;2023-04-26T11:47:16;101275.88;;;10.09;59.76
60832;BME280;46665;51.558;-0.448;2023-04-26T11:49:42;101276.06;;;9.97;58.99
60832;BME280;46665;51.558;-0.448;2023-04-26T11:52:08;101269.97;;;9.85;58.33
60832;BME280;46665;51.558;-0.448;2023-04-26T11:54:35;101279.72;;;9.75;58.73
60832;BME280;46665;51.558;-0.448;2023-04-26T11:57:15;101281.34;;;9.76;59.18
60832;BME280;46665;51.558;-0.448;2023-04-26T11:59:41;101269.09;;;9.74;59.52
60832;BME280;46665;51.558;-0.448;2023-04-26T12:02:06;101274.00;;;9.77;58.57
60832;BME280;46665;51.558;-0.448;2023-04-26T12:04:32;101282.72;;;9.79;58.54
60832;BME280;46665;51.558;-0.448;2023-04-26T12:06:58;101275.91;;;9.76;59.72
60832;BME280;46665;51.558;-0.448;2023-04-26T12:09:28;101278.09;;;9.80;59.82
60832;BME280;46665;51.558;-0.448;2023-04-26T12:12:01;101281.63;;;9.75;59.03
60832;BME280;46665;51.558;-0.448;2023-04-26T12:14:36;101277.53;;;9.72;58.15
60832;BME280;46665;51.558;-0.448;2023-04-26T12:17:03;101285.41;;;9.74;58.77
60832;BME280;46665;51.558;-0.448;2023-04-26T12:19:37;101276.44;;;9.73;58.74
60832;BME280;46665;51.558;-0.448;2023-04-26T12:22:03;101281.31;;;9.71;57.81
60832;BME280;46665;51.558;-0.448;2023-04-26T12:24:30;101275.25;;;9.64;57.66
60832;BME280;46665;51.558;-0.448;2023-04-26T12:27:01;101269.06;;;9.69;59.54
60832;BME280;46665;51.558;-0.448;2023-04-26T12:29:27;101273.97;;;9.72;58.15
60832;BME280;46665;51.558;-0.448;2023-04-26T12:31:57;101273.91;;;9.67;56.38
60832;BME280;46665;51.558;-0.448;2023-04-26T12:34:23;101270.44;;;9.71;57.45
60832;BME280;46665;51.558;-0.448;2023-04-26T12:36:49;101264.50;;;9.80;58.19
60832;BME280;46665;51.558;-0.448;2023-04-26T12:39:15;101261.81;;;9.85;58.39
60832;BME280;46665;51.558;-0.448;2023-04-26T12:41:41;101273.81;;;9.89;58.94
60832;BME280;46665;51.558;-0.448;2023-04-26T12:44:08;101266.84;;;9.98;59.13
60832;BME280;46665;51.558;-0.448;2023-04-26T12:46:34;101271.50;;;10.03;58.45
60832;BME280;46665;51.558;-0.448;2023-04-26T12:49:00;101262.00;;;10.05;58.54
60832;BME280;46665;51.558;-0.448;2023-04-26T12:51:25;101270.38;;;9.98;57.83
60832;BME280;46665;51.558;-0.448;2023-04-26T12:53:51;101269.75;;;9.91;57.11
60832;BME280;46665;51.558;-0.448;2023-04-26T12:56:16;101269.56;;;9.98;57.54
60832;BME280;46665;51.558;-0.448;2023-04-26T12:58:42;101262.78;;;10.01;58.04
60832;BME280;46665;51.558;-0.448;2023-04-26T13:01:08;101266.88;;;10.03;57.09
60832;BME280;46665;51.558;-0.448;2023-04-26T13:03:33;101273.69;;;10.06;57.24
60832;BME280;46665;51.558;-0.448;2023-04-26T13:05:59;101280.75;;;10.07;57.75
60832;BME280;46665;51.558;-0.448;2023-04-26T13:08:24;101278.25;;;10.00;57.09